sensor_id;sensor_type;location;lat;lon;timestamp;P1;durP1;ratioP1;P2;durP2;ratioP2
75930;SDS011;64609;47.052;15.462;2022-11-20T00:02:22;43.08;;;24.73;;
75930;SDS011;64609;47.052;15.462;2022-11-20T00:04:48;41.13;;;25.05;;
75930;SDS011;64609;47.052;15.462;2022-11-20T00:07:14;38.35;;;23.52;;
75930;SDS011;64609;47.052;15.462;2022-11-20T00:09:40;42.13;;;24.98;;
75930;SDS011;64609;47.052;15.462;2022-11-20T00:12:05;38.40;;;23.75;;
75930;SDS011;64609;47.052;15.462;2022-11-20T00:14:31;43.30;;;25.17;;
75930;SDS011;64609;47.052;15.462;2022-11-20T00:16:57;41.42;;;24.25;;
75930;SDS011;64609;47.052;15.462;2022-11-20T00:19:22;40.03;;;24.20;;
75930;SDS011;64609;47.052;15.462;2022-11-20T00:21:48;37.35;;;23.63;;
75930;SDS011;64609;47.052;15.462;2022-11-20T00:24:16;44.72;;;24.55;;
75930;SDS011;64609;47.052;15.462;2022-11-20T00:26:42;40.55;;;23.17;;
75930;SDS011;64609;47.052;15.462;2022-11-20T00:29:08;38.83;;;23.48;;
75930;SDS011;64609;47.052;15.462;2022-11-20T00:31:35;38.67;;;24.00;;
75930;SDS011;64609;47.052;15.462;2022-11-20T00:34:00;37.35;;;22.80;;
75930;SDS011;64609;47.052;15.462;2022-11-20T00:36:27;39.10;;;23.35;;
75930;SDS011;64609;47.052;15.462;2022-11-20T00:38:54;39.00;;;23.00;;
75930;SDS011;64609;47.052;15.462;2022-11-20T00:41:21;38.03;;;22.98;;
75930;SDS011;64609;47.052;15.462;2022-11-20T00:43:47;36.80;;;22.58;;
75930;SDS011;64609;47.052;15.462;2022-11-20T00:46:17;36.00;;;22.73;;
75930;SDS011;64609;47.052;15.462;2022-11-20T00:48:44;38.55;;;22.00;;
75930;SDS011;64609;47.052;15.462;2022-11-20T00:51:11;37.35;;;23.80;;
75930;SDS011;64609;47.052;15.462;2022-11-20T00:53:38;36.03;;;21.92;;
75930;SDS011;64609;47.052;15.462;2022-11-20T00:56:07;35.72;;;22.58;;
75930;SDS011;64609;47.052;15.462;2022-11-20T00:58:38;39.05;;;23.60;;
75930;SDS011;64609;47.052;15.462;2022-11-20T01:01:06;37.80;;;22.38;;
75930;SDS011;64609;47.052;15.462;2022-11-20T01:03:36;32.47;;;21.20;;
75930;SDS011;64609;47.052;15.462;2022-11-20T01:06:05;35.57;;;22.00;;
75930;SDS011;64609;47.052;15.462;2022-11-20T01:08:33;34.58;;;21.83;;
75930;SDS011;64609;47.052;15.462;2022-11-20T01:11:05;33.00;;;21.10;;
75930;SDS011;64609;47.052;15.462;2022-11-20T01:13:32;33.95;;;21.23;;
75930;SDS011;64609;47.052;15.462;2022-11-20T01:16:13;36.35;;;22.45;;
75930;SDS011;64609;47.052;15.462;2022-11-20T01:18:39;35.00;;;21.35;;
75930;SDS011;64609;47.052;15.462;2022-11-20T01:21:14;34.67;;;20.70;;
75930;SDS011;64609;47.052;15.462;2022-11-20T01:23:42;31.02;;;20.25;;
75930;SDS011;64609;47.052;15.462;2022-11-20T01:26:09;30.30;;;19.17;;
75930;SDS011;64609;47.052;15.462;2022-11-20T01:28:37;34.08;;;20.42;;
75930;SDS011;64609;47.052;15.462;2022-11-20T01:31:13;33.88;;;21.38;;
75930;SDS011;64609;47.052;15.462;2022-11-20T01:33:44;37.33;;;20.85;;
75930;SDS011;64609;47.052;15.462;2022-11-20T01:36:12;37.70;;;22.38;;
75930;SDS011;64609;47.052;15.462;2022-11-20T01:38:38;34.53;;;21.08;;
75930;SDS011;64609;47.052;15.462;2022-11-20T01:41:04;33.97;;;20.10;;
75930;SDS011;64609;47.052;15.462;2022-11-20T01:43:30;34.78;;;21.15;;
75930;SDS011;64609;47.052;15.462;2022-11-20T01:48:43;35.17;;;21.48;;
75930;SDS011;64609;47.052;15.462;2022-11-20T01:51:29;35.38;;;21.83;;
75930;SDS011;64609;47.052;15.462;2022-11-20T01:56:32;38.45;;;21.15;;
75930;SDS011;64609;47.052;15.462;2022-11-20T01:59:04;35.30;;;21.20;;
75930;SDS011;64609;47.052;15.462;2022-11-20T02:01:32;34.00;;;21.45;;
75930;SDS011;64609;47.052;15.462;2022-11-20T02:03:58;34.00;;;21.15;;
75930;SDS011;64609;47.052;15.462;2022-11-20T02:06:29;37.25;;;22.30;;
75930;SDS011;64609;47.052;15.462;2022-11-20T02:09:07;37.33;;;22.15;;
75930;SDS011;64609;47.052;15.462;2022-11-20T02:11:33;35.30;;;21.40;;
75930;SDS011;64609;47.052;15.462;2022-11-20T02:13:58;32.83;;;20.95;;
75930;SDS011;64609;47.052;15.462;2022-11-20T02:16:25;32.90;;;20.88;;
75930;SDS011;64609;47.052;15.462;2022-11-20T02:18:51;32.53;;;20.88;;
75930;SDS011;64609;47.052;15.462;2022-11-20T02:24:09;37.97;;;22.13;;
75930;SDS011;64609;47.052;15.462;2022-11-20T02:26:56;29.15;;;19.35;;
75930;SDS011;64609;47.052;15.462;2022-11-20T02:29:29;35.05;;;21.40;;
75930;SDS011;64609;47.052;15.462;2022-11-20T02:32:21;33.90;;;19.92;;
75930;SDS011;64609;47.052;15.462;2022-11-20T02:34:50;32.13;;;19.75;;
75930;SDS011;64609;47.052;15.462;2022-11-20T02:37:16;31.27;;;19.75;;
75930;SDS011;64609;47.052;15.462;2022-11-20T02:39:43;33.55;;;20.52;;
75930;SDS011;64609;47.052;15.462;2022-11-20T02:42:11;31.80;;;19.23;;
75930;SDS011;64609;47.052;15.462;2022-11-20T02:44:36;28.92;;;18.73;;
75930;SDS011;64609;47.052;15.462;2022-11-20T02:47:02;27.67;;;18.73;;
75930;SDS011;64609;47.052;15.462;2022-11-20T02:49:28;29.27;;;19.13;;
75930;SDS011;64609;47.052;15.462;2022-11-20T02:51:54;30.92;;;19.05;;
75930;SDS011;64609;47.052;15.462;2022-11-20T02:54:19;28.02;;;17.25;;
75930;SDS011;64609;47.052;15.462;2022-11-20T02:56:45;26.67;;;17.75;;
75930;SDS011;64609;47.052;15.462;2022-11-20T02:59:10;24.65;;;17.42;;
75930;SDS011;64609;47.052;15.462;2022-11-20T03:01:36;27.67;;;18.40;;
75930;SDS011;64609;47.052;15.462;2022-11-20T03:04:02;26.88;;;18.77;;
75930;SDS011;64609;47.052;15.462;2022-11-20T03:06:28;31.42;;;19.00;;
75930;SDS011;64609;47.052;15.462;2022-11-20T03:08:53;31.60;;;19.33;;
75930;SDS011;64609;47.052;15.462;2022-11-20T03:11:19;28.52;;;18.77;;
75930;SDS011;64609;47.052;15.462;2022-11-20T03:13:45;29.50;;;18.38;;
75930;SDS011;64609;47.052;15.462;2022-11-20T03:16:12;30.27;;;18.77;;
75930;SDS011;64609;47.052;15.462;2022-11-20T03:18:41;19.42;;;13.18;;
75930;SDS011;64609;47.052;15.462;2022-11-20T03:21:07;18.08;;;11.90;;
75930;SDS011;64609;47.052;15.462;2022-11-20T03:23:34;19.40;;;12.75;;
75930;SDS011;64609;47.052;15.462;2022-11-20T03:26:10;16.02;;;10.98;;
75930;SDS011;64609;47.052;15.462;2022-11-20T03:28:37;14.63;;;10.73;;
75930;SDS011;64609;47.052;15.462;2022-11-20T03:31:11;15.77;;;10.98;;
75930;SDS011;64609;47.052;15.462;2022-11-20T03:33:38;19.85;;;12.18;;
75930;SDS011;64609;47.052;15.462;2022-11-20T03:36:06;19.42;;;12.80;;
75930;SDS011;64609;47.052;15.462;2022-11-20T03:38:35;21.38;;;13.07;;
75930;SDS011;64609;47.052;15.462;2022-11-20T03:41:02;16.98;;;12.05;;
75930;SDS011;64609;47.052;15.462;2022-11-20T03:43:32;16.48;;;11.10;;
75930;SDS011;64609;47.052;15.462;2022-11-20T03:45:58;16.63;;;11.25;;
75930;SDS011;64609;47.052;15.462;2022-11-20T03:48:24;16.83;;;11.18;;
75930;SDS011;64609;47.052;15.462;2022-11-20T03:50:50;19.42;;;11.80;;
75930;SDS011;64609;47.052;15.462;2022-11-20T03:53:16;16.90;;;11.25;;
75930;SDS011;64609;47.052;15.462;2022-11-20T03:55:44;17.38;;;10.73;;
75930;SDS011;64609;47.052;15.462;2022-11-20T03:58:15;16.33;;;11.85;;
75930;SDS011;64609;47.052;15.462;2022-11-20T04:00:40;16.50;;;10.60;;
75930;SDS011;64609;47.052;15.462;2022-11-20T04:03:06;15.45;;;10.77;;
75930;SDS011;64609;47.052;15.462;2022-11-20T04:05:32;15.73;;;11.02;;
75930;SDS011;64609;47.052;15.462;2022-11-20T04:07:59;16.58;;;11.40;;
75930;SDS011;64609;47.052;15.462;2022-11-20T04:10:24;14.93;;;11.20;;
75930;SDS011;64609;47.052;15.462;2022-11-20T04:12:50;17.38;;;11.93;;
75930;SDS011;64609;47.052;15.462;2022-11-20T04:15:16;15.23;;;11.23;;
75930;SDS011;64609;47.052;15.462;2022-11-20T04:17:41;19.27;;;12.60;;
75930;SDS011;64609;47.052;15.462;2022-11-20T04:20:07;28.10;;;18.15;;
75930;SDS011;64609;47.052;15.462;2022-11-20T04:22:33;34.00;;;20.55;;
75930;SDS011;64609;47.052;15.462;2022-11-20T04:24:58;22.95;;;15.05;;
75930;SDS011;64609;47.052;15.462;2022-11-20T04:27:24;19.15;;;13.55;;
75930;SDS011;64609;47.052;15.462;2022-11-20T04:29:50;21.63;;;14.07;;
75930;SDS011;64609;47.052;15.462;2022-11-20T04:32:15;18.70;;;13.52;;
75930;SDS011;64609;47.052;15.462;2022-11-20T04:34:41;26.60;;;15.60;;
75930;SDS011;64609;47.052;15.462;2022-11-20T04:37:06;23.10;;;13.82;;
75930;SDS011;64609;47.052;15.462;2022-11-20T04:39:32;22.95;;;15.45;;
75930;SDS011;64609;47.052;15.462;2022-11-20T04:41:57;21.25;;;14.65;;
75930;SDS011;64609;47.052;15.462;2022-11-20T04:44:41;20.98;;;13.75;;
75930;SDS011;64609;47.052;15.462;2022-11-20T04:47:07;24.95;;;14.13;;
75930;SDS011;64609;47.052;15.462;2022-11-20T04:49:33;23.38;;;15.32;;
75930;SDS011;64609;47.052;15.462;2022-11-20T04:51:58;25.70;;;16.20;;
75930;SDS011;64609;47.052;15.462;2022-11-20T04:54:24;31.73;;;18.95;;
75930;SDS011;64609;47.052;15.462;2022-11-20T04:56:50;22.60;;;15.02;;
75930;SDS011;64609;47.052;15.462;2022-11-20T04:59:16;24.70;;;15.85;;
75930;SDS011;64609;47.052;15.462;2022-11-20T05:01:41;28.60;;;18.27;;
75930;SDS011;64609;47.052;15.462;2022-11-20T05:04:07;32.17;;;18.58;;
75930;SDS011;64609;47.052;15.462;2022-11-20T05:06:33;33.10;;;19.42;;
75930;SDS011;64609;47.052;15.462;2022-11-20T05:08:59;29.10;;;18.77;;
75930;SDS011;64609;47.052;15.462;2022-11-20T05:11:26;31.92;;;19.15;;
75930;SDS011;64609;47.052;15.462;2022-11-20T05:13:54;32.67;;;20.42;;
75930;SDS011;64609;47.052;15.462;2022-11-20T05:16:21;35.38;;;20.05;;
75930;SDS011;64609;47.052;15.462;2022-11-20T05:18:48;36.55;;;20.88;;
75930;SDS011;64609;47.052;15.462;2022-11-20T05:21:15;34.28;;;20.95;;
75930;SDS011;64609;47.052;15.462;2022-11-20T05:23:41;38.30;;;22.17;;
75930;SDS011;64609;47.052;15.462;2022-11-20T05:26:08;35.22;;;21.48;;
75930;SDS011;64609;47.052;15.462;2022-11-20T05:28:41;35.50;;;21.58;;
75930;SDS011;64609;47.052;15.462;2022-11-20T05:31:08;34.55;;;21.08;;
75930;SDS011;64609;47.052;15.462;2022-11-20T05:33:36;32.13;;;20.70;;
75930;SDS011;64609;47.052;15.462;2022-11-20T05:36:02;35.65;;;21.52;;
75930;SDS011;64609;47.052;15.462;2022-11-20T05:38:29;34.10;;;20.80;;
75930;SDS011;64609;47.052;15.462;2022-11-20T05:40:54;34.42;;;21.45;;
75930;SDS011;64609;47.052;15.462;2022-11-20T05:43:27;36.75;;;21.65;;
75930;SDS011;64609;47.052;15.462;2022-11-20T05:45:53;30.52;;;20.65;;
75930;SDS011;64609;47.052;15.462;2022-11-20T05:48:19;35.35;;;21.17;;
75930;SDS011;64609;47.052;15.462;2022-11-20T05:50:45;36.78;;;21.90;;
75930;SDS011;64609;47.052;15.462;2022-11-20T05:53:10;31.95;;;19.70;;
75930;SDS011;64609;47.052;15.462;2022-11-20T05:55:36;33.72;;;20.45;;
75930;SDS011;64609;47.052;15.462;2022-11-20T05:58:01;28.92;;;19.38;;
75930;SDS011;64609;47.052;15.462;2022-11-20T06:00:27;33.25;;;19.45;;
75930;SDS011;64609;47.052;15.462;2022-11-20T06:02:53;35.30;;;20.38;;
75930;SDS011;64609;47.052;15.462;2022-11-20T06:05:18;32.03;;;20.30;;
75930;SDS011;64609;47.052;15.462;2022-11-20T06:07:44;28.60;;;18.58;;
75930;SDS011;64609;47.052;15.462;2022-11-20T06:10:09;29.90;;;18.55;;
75930;SDS011;64609;47.052;15.462;2022-11-20T06:12:36;29.20;;;18.17;;
75930;SDS011;64609;47.052;15.462;2022-11-20T06:15:02;35.03;;;18.55;;
75930;SDS011;64609;47.052;15.462;2022-11-20T06:17:28;31.90;;;18.40;;
75930;SDS011;64609;47.052;15.462;2022-11-20T06:19:54;29.10;;;17.33;;
75930;SDS011;64609;47.052;15.462;2022-11-20T06:22:20;27.85;;;17.40;;
75930;SDS011;64609;47.052;15.462;2022-11-20T06:24:45;25.10;;;16.42;;
75930;SDS011;64609;47.052;15.462;2022-11-20T06:27:11;26.13;;;16.70;;
75930;SDS011;64609;47.052;15.462;2022-11-20T06:29:36;27.15;;;16.70;;
75930;SDS011;64609;47.052;15.462;2022-11-20T06:32:02;27.75;;;16.52;;
75930;SDS011;64609;47.052;15.462;2022-11-20T06:34:28;28.35;;;17.00;;
75930;SDS011;64609;47.052;15.462;2022-11-20T06:36:53;27.58;;;16.83;;
75930;SDS011;64609;47.052;15.462;2022-11-20T06:39:19;27.83;;;17.20;;
75930;SDS011;64609;47.052;15.462;2022-11-20T06:41:44;25.42;;;16.42;;
75930;SDS011;64609;47.052;15.462;2022-11-20T06:44:10;33.78;;;19.50;;
75930;SDS011;64609;47.052;15.462;2022-11-20T06:46:36;33.15;;;18.92;;
75930;SDS011;64609;47.052;15.462;2022-11-20T06:49:01;35.15;;;20.73;;
75930;SDS011;64609;47.052;15.462;2022-11-20T06:51:27;36.10;;;20.70;;
75930;SDS011;64609;47.052;15.462;2022-11-20T06:53:53;29.95;;;18.08;;
75930;SDS011;64609;47.052;15.462;2022-11-20T06:56:19;27.02;;;17.52;;
75930;SDS011;64609;47.052;15.462;2022-11-20T06:58:44;31.38;;;18.23;;
75930;SDS011;64609;47.052;15.462;2022-11-20T07:01:11;39.17;;;19.67;;
75930;SDS011;64609;47.052;15.462;2022-11-20T07:03:38;31.70;;;18.42;;
75930;SDS011;64609;47.052;15.462;2022-11-20T07:06:05;30.55;;;18.42;;
75930;SDS011;64609;47.052;15.462;2022-11-20T07:08:31;32.63;;;18.85;;
75930;SDS011;64609;47.052;15.462;2022-11-20T07:10:58;33.00;;;18.38;;
75930;SDS011;64609;47.052;15.462;2022-11-20T07:13:25;32.03;;;18.75;;
75930;SDS011;64609;47.052;15.462;2022-11-20T07:15:51;35.45;;;20.55;;
75930;SDS011;64609;47.052;15.462;2022-11-20T07:18:17;35.55;;;20.38;;
75930;SDS011;64609;47.052;15.462;2022-11-20T07:20:42;33.60;;;20.77;;
75930;SDS011;64609;47.052;15.462;2022-11-20T07:23:08;32.83;;;19.45;;
75930;SDS011;64609;47.052;15.462;2022-11-20T07:25:34;32.70;;;19.17;;
75930;SDS011;64609;47.052;15.462;2022-11-20T07:28:00;30.88;;;19.27;;
75930;SDS011;64609;47.052;15.462;2022-11-20T07:30:29;31.00;;;19.08;;
75930;SDS011;64609;47.052;15.462;2022-11-20T07:32:55;25.63;;;16.27;;
75930;SDS011;64609;47.052;15.462;2022-11-20T07:35:25;27.67;;;17.73;;
75930;SDS011;64609;47.052;15.462;2022-11-20T07:37:50;24.38;;;16.58;;
75930;SDS011;64609;47.052;15.462;2022-11-20T07:40:16;26.40;;;15.35;;
75930;SDS011;64609;47.052;15.462;2022-11-20T07:42:49;26.20;;;15.45;;
75930;SDS011;64609;47.052;15.462;2022-11-20T07:45:16;22.25;;;15.20;;
75930;SDS011;64609;47.052;15.462;2022-11-20T07:47:42;23.58;;;15.40;;
75930;SDS011;64609;47.052;15.462;2022-11-20T07:50:08;21.33;;;14.55;;
75930;SDS011;64609;47.052;15.462;2022-11-20T07:52:34;23.00;;;15.40;;
75930;SDS011;64609;47.052;15.462;2022-11-20T07:55:00;26.40;;;16.73;;
75930;SDS011;64609;47.052;15.462;2022-11-20T07:57:25;25.48;;;16.27;;
75930;SDS011;64609;47.052;15.462;2022-11-20T07:59:51;23.65;;;16.38;;
75930;SDS011;64609;47.052;15.462;2022-11-20T08:02:16;26.65;;;17.05;;
75930;SDS011;64609;47.052;15.462;2022-11-20T08:04:42;23.60;;;16.40;;
75930;SDS011;64609;47.052;15.462;2022-11-20T08:07:08;25.45;;;16.35;;
75930;SDS011;64609;47.052;15.462;2022-11-20T08:09:33;24.13;;;16.33;;
75930;SDS011;64609;47.052;15.462;2022-11-20T08:11:59;25.52;;;16.80;;
75930;SDS011;64609;47.052;15.462;2022-11-20T08:14:43;24.30;;;15.35;;
75930;SDS011;64609;47.052;15.462;2022-11-20T08:17:08;25.48;;;16.60;;
75930;SDS011;64609;47.052;15.462;2022-11-20T08:19:34;29.05;;;17.00;;
75930;SDS011;64609;47.052;15.462;2022-11-20T08:22:00;24.38;;;15.98;;
75930;SDS011;64609;47.052;15.462;2022-11-20T08:24:26;24.50;;;16.15;;
75930;SDS011;64609;47.052;15.462;2022-11-20T08:26:51;26.35;;;16.42;;
75930;SDS011;64609;47.052;15.462;2022-11-20T08:29:17;28.15;;;16.30;;
75930;SDS011;64609;47.052;15.462;2022-11-20T08:31:43;24.70;;;16.13;;
75930;SDS011;64609;47.052;15.462;2022-11-20T08:34:09;25.25;;;17.10;;
75930;SDS011;64609;47.052;15.462;2022-11-20T08:36:35;25.15;;;16.45;;
75930;SDS011;64609;47.052;15.462;2022-11-20T08:39:01;27.00;;;16.63;;
75930;SDS011;64609;47.052;15.462;2022-11-20T08:41:28;26.25;;;16.25;;
75930;SDS011;64609;47.052;15.462;2022-11-20T08:44:01;25.20;;;16.75;;
75930;SDS011;64609;47.052;15.462;2022-11-20T08:48:58;23.30;;;15.98;;
75930;SDS011;64609;47.052;15.462;2022-11-20T08:51:24;28.55;;;16.27;;
75930;SDS011;64609;47.052;15.462;2022-11-20T08:53:50;26.15;;;16.63;;
75930;SDS011;64609;47.052;15.462;2022-11-20T08:56:16;27.05;;;17.50;;
75930;SDS011;64609;47.052;15.462;2022-11-20T08:58:42;26.20;;;17.48;;
75930;SDS011;64609;47.052;15.462;2022-11-20T09:01:08;24.15;;;16.08;;
75930;SDS011;64609;47.052;15.462;2022-11-20T09:03:34;25.23;;;17.25;;
75930;SDS011;64609;47.052;15.462;2022-11-20T09:06:01;25.30;;;16.33;;
75930;SDS011;64609;47.052;15.462;2022-11-20T09:08:28;24.60;;;16.48;;
75930;SDS011;64609;47.052;15.462;2022-11-20T09:10:55;26.40;;;18.25;;
75930;SDS011;64609;47.052;15.462;2022-11-20T09:13:21;26.30;;;17.58;;
75930;SDS011;64609;47.052;15.462;2022-11-20T09:15:58;25.77;;;17.38;;
75930;SDS011;64609;47.052;15.462;2022-11-20T09:18:25;25.92;;;17.23;;
75930;SDS011;64609;47.052;15.462;2022-11-20T09:20:56;24.50;;;16.67;;
75930;SDS011;64609;47.052;15.462;2022-11-20T09:23:22;30.80;;;19.60;;
75930;SDS011;64609;47.052;15.462;2022-11-20T09:25:48;26.17;;;18.05;;
75930;SDS011;64609;47.052;15.462;2022-11-20T09:28:14;25.50;;;16.95;;
75930;SDS011;64609;47.052;15.462;2022-11-20T09:30:39;26.83;;;18.30;;
75930;SDS011;64609;47.052;15.462;2022-11-20T09:33:05;27.13;;;18.20;;
75930;SDS011;64609;47.052;15.462;2022-11-20T09:35:31;31.13;;;17.85;;
75930;SDS011;64609;47.052;15.462;2022-11-20T09:37:57;27.20;;;17.45;;
75930;SDS011;64609;47.052;15.462;2022-11-20T09:40:27;25.20;;;17.73;;
75930;SDS011;64609;47.052;15.462;2022-11-20T09:48:18;27.80;;;17.95;;
75930;SDS011;64609;47.052;15.462;2022-11-20T09:51:06;26.17;;;17.25;;
75930;SDS011;64609;47.052;15.462;2022-11-20T09:56:25;24.50;;;16.00;;
75930;SDS011;64609;47.052;15.462;2022-11-20T09:58:51;24.85;;;16.10;;
75930;SDS011;64609;47.052;15.462;2022-11-20T10:01:23;27.85;;;17.48;;
75930;SDS011;64609;47.052;15.462;2022-11-20T10:04:36;23.38;;;16.15;;
75930;SDS011;64609;47.052;15.462;2022-11-20T10:06:52;24.05;;;16.05;;
75930;SDS011;64609;47.052;15.462;2022-11-20T10:34:00;20.23;;;15.02;;
75930;SDS011;64609;47.052;15.462;2022-11-20T10:36:42;22.83;;;15.85;;
75930;SDS011;64609;47.052;15.462;2022-11-20T10:39:16;24.38;;;15.57;;
75930;SDS011;64609;47.052;15.462;2022-11-20T10:41:51;21.70;;;14.43;;
75930;SDS011;64609;47.052;15.462;2022-11-20T10:44:22;20.92;;;14.55;;
75930;SDS011;64609;47.052;15.462;2022-11-20T10:47:15;20.73;;;14.07;;
75930;SDS011;64609;47.052;15.462;2022-11-20T10:49:42;20.25;;;14.13;;
75930;SDS011;64609;47.052;15.462;2022-11-20T10:58:10;19.95;;;14.52;;
75930;SDS011;64609;47.052;15.462;2022-11-20T11:00:45;21.25;;;15.57;;
75930;SDS011;64609;47.052;15.462;2022-11-20T11:03:30;22.92;;;15.75;;
75930;SDS011;64609;47.052;15.462;2022-11-20T11:09:04;22.60;;;15.98;;
75930;SDS011;64609;47.052;15.462;2022-11-20T11:11:54;23.55;;;16.52;;
75930;SDS011;64609;47.052;15.462;2022-11-20T11:14:20;22.52;;;16.02;;
75930;SDS011;64609;47.052;15.462;2022-11-20T11:16:49;23.10;;;16.90;;
75930;SDS011;64609;47.052;15.462;2022-11-20T11:19:17;24.92;;;17.05;;
75930;SDS011;64609;47.052;15.462;2022-11-20T11:22:01;26.13;;;16.83;;
75930;SDS011;64609;47.052;15.462;2022-11-20T11:24:35;22.92;;;16.02;;
75930;SDS011;64609;47.052;15.462;2022-11-20T11:27:02;23.40;;;16.38;;
75930;SDS011;64609;47.052;15.462;2022-11-20T11:29:35;21.33;;;16.08;;
75930;SDS011;64609;47.052;15.462;2022-11-20T11:32:08;23.35;;;16.83;;
75930;SDS011;64609;47.052;15.462;2022-11-20T11:34:39;23.45;;;16.95;;
75930;SDS011;64609;47.052;15.462;2022-11-20T11:37:05;26.42;;;17.13;;
75930;SDS011;64609;47.052;15.462;2022-11-20T11:39:40;24.63;;;16.90;;
75930;SDS011;64609;47.052;15.462;2022-11-20T11:42:07;26.23;;;17.23;;
75930;SDS011;64609;47.052;15.462;2022-11-20T11:44:37;24.63;;;16.73;;
75930;SDS011;64609;47.052;15.462;2022-11-20T11:47:32;23.60;;;15.77;;
75930;SDS011;64609;47.052;15.462;2022-11-20T11:52:27;19.50;;;13.55;;
75930;SDS011;64609;47.052;15.462;2022-11-20T11:55:00;17.73;;;13.48;;
75930;SDS011;64609;47.052;15.462;2022-11-20T11:57:49;20.65;;;14.95;;
75930;SDS011;64609;47.052;15.462;2022-11-20T12:00:17;20.00;;;15.18;;
75930;SDS011;64609;47.052;15.462;2022-11-20T12:11:04;14.93;;;10.23;;
75930;SDS011;64609;47.052;15.462;2022-11-20T12:13:45;11.82;;;7.55;;
75930;SDS011;64609;47.052;15.462;2022-11-20T12:16:35;9.85;;;7.35;;
75930;SDS011;64609;47.052;15.462;2022-11-20T12:19:03;9.90;;;7.28;;
75930;SDS011;64609;47.052;15.462;2022-11-20T12:30:21;14.68;;;9.13;;
75930;SDS011;64609;47.052;15.462;2022-11-20T12:41:22;14.10;;;9.93;;
75930;SDS011;64609;47.052;15.462;2022-11-20T12:52:57;8.10;;;6.00;;
75930;SDS011;64609;47.052;15.462;2022-11-20T13:01:36;8.63;;;5.72;;
75930;SDS011;64609;47.052;15.462;2022-11-20T13:07:05;10.55;;;4.43;;
75930;SDS011;64609;47.052;15.462;2022-11-20T13:09:35;5.57;;;3.17;;
75930;SDS011;64609;47.052;15.462;2022-11-20T13:12:27;4.28;;;2.70;;
75930;SDS011;64609;47.052;15.462;2022-11-20T13:20:15;6.07;;;4.40;;
75930;SDS011;64609;47.052;15.462;2022-11-20T13:22:47;7.25;;;4.63;;
75930;SDS011;64609;47.052;15.462;2022-11-20T13:25:24;5.80;;;4.38;;
75930;SDS011;64609;47.052;15.462;2022-11-20T13:27:50;6.18;;;4.60;;
75930;SDS011;64609;47.052;15.462;2022-11-20T13:30:20;7.35;;;4.70;;
75930;SDS011;64609;47.052;15.462;2022-11-20T13:32:47;5.28;;;4.10;;
75930;SDS011;64609;47.052;15.462;2022-11-20T13:35:27;5.68;;;4.18;;
75930;SDS011;64609;47.052;15.462;2022-11-20T13:38:02;4.90;;;3.63;;
75930;SDS011;64609;47.052;15.462;2022-11-20T13:40:36;5.70;;;4.60;;
75930;SDS011;64609;47.052;15.462;2022-11-20T13:43:14;6.68;;;4.82;;
75930;SDS011;64609;47.052;15.462;2022-11-20T13:45:41;6.22;;;4.85;;
75930;SDS011;64609;47.052;15.462;2022-11-20T13:48:20;6.53;;;4.72;;
75930;SDS011;64609;47.052;15.462;2022-11-20T13:56:11;9.15;;;5.30;;
75930;SDS011;64609;47.052;15.462;2022-11-20T14:03:46;8.43;;;5.95;;
75930;SDS011;64609;47.052;15.462;2022-11-20T14:06:55;7.25;;;5.47;;
75930;SDS011;64609;47.052;15.462;2022-11-20T14:09:10;5.95;;;4.80;;
75930;SDS011;64609;47.052;15.462;2022-11-20T14:11:55;8.10;;;5.80;;
75930;SDS011;64609;47.052;15.462;2022-11-20T14:14:28;6.38;;;4.85;;
75930;SDS011;64609;47.052;15.462;2022-11-20T14:17:08;7.50;;;5.38;;
75930;SDS011;64609;47.052;15.462;2022-11-20T14:19:42;6.88;;;5.50;;
75930;SDS011;64609;47.052;15.462;2022-11-20T14:24:46;7.47;;;5.60;;
75930;SDS011;64609;47.052;15.462;2022-11-20T14:27:21;7.65;;;5.97;;
75930;SDS011;64609;47.052;15.462;2022-11-20T14:29:48;6.50;;;5.18;;
75930;SDS011;64609;47.052;15.462;2022-11-20T14:32:18;6.28;;;5.30;;
75930;SDS011;64609;47.052;15.462;2022-11-20T14:34:47;6.65;;;4.93;;
75930;SDS011;64609;47.052;15.462;2022-11-20T14:37:20;7.72;;;5.55;;
75930;SDS011;64609;47.052;15.462;2022-11-20T14:39:53;8.13;;;5.28;;
75930;SDS011;64609;47.052;15.462;2022-11-20T14:42:22;7.22;;;5.45;;
75930;SDS011;64609;47.052;15.462;2022-11-20T14:44:50;6.93;;;5.57;;
75930;SDS011;64609;47.052;15.462;2022-11-20T14:47:21;6.45;;;5.30;;
75930;SDS011;64609;47.052;15.462;2022-11-20T14:49:49;7.53;;;5.20;;
75930;SDS011;64609;47.052;15.462;2022-11-20T14:52:18;7.22;;;5.57;;
75930;SDS011;64609;47.052;15.462;2022-11-20T14:54:48;8.73;;;5.78;;
75930;SDS011;64609;47.052;15.462;2022-11-20T14:57:35;11.70;;;8.05;;
75930;SDS011;64609;47.052;15.462;2022-11-20T15:02:40;13.50;;;8.65;;
75930;SDS011;64609;47.052;15.462;2022-11-20T15:05:07;12.63;;;8.68;;
75930;SDS011;64609;47.052;15.462;2022-11-20T15:07:38;15.40;;;9.07;;
75930;SDS011;64609;47.052;15.462;2022-11-20T15:10:24;12.48;;;8.30;;
75930;SDS011;64609;47.052;15.462;2022-11-20T15:12:51;11.90;;;7.45;;
75930;SDS011;64609;47.052;15.462;2022-11-20T15:18:18;10.80;;;6.88;;
75930;SDS011;64609;47.052;15.462;2022-11-20T15:20:46;11.35;;;7.47;;
75930;SDS011;64609;47.052;15.462;2022-11-20T15:23:13;12.15;;;7.85;;
75930;SDS011;64609;47.052;15.462;2022-11-20T15:25:41;11.85;;;8.50;;
75930;SDS011;64609;47.052;15.462;2022-11-20T15:28:13;11.65;;;8.40;;
75930;SDS011;64609;47.052;15.462;2022-11-20T15:31:00;9.18;;;6.93;;
75930;SDS011;64609;47.052;15.462;2022-11-20T15:33:27;10.70;;;8.00;;
75930;SDS011;64609;47.052;15.462;2022-11-20T15:35:53;13.77;;;9.82;;
75930;SDS011;64609;47.052;15.462;2022-11-20T15:38:19;12.85;;;10.48;;
75930;SDS011;64609;47.052;15.462;2022-11-20T15:40:44;13.43;;;9.77;;
75930;SDS011;64609;47.052;15.462;2022-11-20T15:43:10;11.82;;;8.85;;
75930;SDS011;64609;47.052;15.462;2022-11-20T15:45:49;14.82;;;10.60;;
75930;SDS011;64609;47.052;15.462;2022-11-20T15:48:23;15.02;;;10.35;;
75930;SDS011;64609;47.052;15.462;2022-11-20T15:50:53;16.48;;;12.50;;
75930;SDS011;64609;47.052;15.462;2022-11-20T15:53:26;20.00;;;14.05;;
75930;SDS011;64609;47.052;15.462;2022-11-20T15:55:52;15.15;;;10.50;;
75930;SDS011;64609;47.052;15.462;2022-11-20T15:58:18;14.77;;;9.70;;
75930;SDS011;64609;47.052;15.462;2022-11-20T16:00:43;15.10;;;9.70;;
75930;SDS011;64609;47.052;15.462;2022-11-20T16:03:13;14.27;;;10.25;;
75930;SDS011;64609;47.052;15.462;2022-11-20T16:05:40;14.65;;;10.27;;
75930;SDS011;64609;47.052;15.462;2022-11-20T16:08:05;15.38;;;10.95;;
75930;SDS011;64609;47.052;15.462;2022-11-20T16:10:31;19.67;;;10.23;;
75930;SDS011;64609;47.052;15.462;2022-11-20T16:12:57;13.80;;;10.32;;
75930;SDS011;64609;47.052;15.462;2022-11-20T16:16:01;22.02;;;17.10;;
75930;SDS011;64609;47.052;15.462;2022-11-20T16:18:30;26.63;;;13.00;;
75930;SDS011;64609;47.052;15.462;2022-11-20T16:20:55;16.67;;;12.25;;
75930;SDS011;64609;47.052;15.462;2022-11-20T16:23:22;19.63;;;12.95;;
75930;SDS011;64609;47.052;15.462;2022-11-20T16:25:48;27.50;;;14.60;;
75930;SDS011;64609;47.052;15.462;2022-11-20T16:28:15;26.30;;;13.63;;